createdAt,value
2019-01-30T00:00:46.366Z,9.13
2019-01-30T00:05:42.257Z,8.53
2019-01-30T00:10:38.186Z,10.93
2019-01-30T00:15:34.075Z,8.17
2019-01-30T00:20:30.148Z,9.40
2019-01-30T00:25:26.142Z,9.90
2019-01-30T00:30:24.239Z,9.40
2019-01-30T00:35:20.226Z,10.67
2019-01-30T00:40:18.513Z,8.10
2019-01-30T00:45:19.565Z,9.13
2019-01-30T00:50:18.502Z,8.97
2019-01-30T00:55:14.594Z,9.03
2019-01-30T01:00:32.254Z,8.00
2019-01-30T01:05:28.145Z,10.00
2019-01-30T01:10:24.263Z,10.03
2019-01-30T01:15:20.153Z,8.97
2019-01-30T01:20:40.653Z,8.70
2019-01-30T01:25:36.594Z,9.30
2019-01-30T01:30:32.458Z,9.43
2019-01-30T01:35:28.471Z,8.30
2019-01-30T01:40:24.636Z,8.20
2019-01-30T01:45:24.116Z,7.20
2019-01-30T01:50:21.007Z,8.60
2019-01-30T01:55:16.899Z,9.53
2019-01-30T02:00:15.697Z,7.43
2019-01-30T02:05:14.089Z,7.90
2019-01-30T02:10:13.218Z,8.10
2019-01-30T02:15:12.214Z,7.87
2019-01-30T02:20:16.506Z,8.00
2019-01-30T02:25:12.509Z,8.50
2019-01-30T02:30:11.904Z,6.50
2019-01-30T02:35:07.904Z,6.97
2019-01-30T02:40:07.102Z,7.23
2019-01-30T02:45:06.011Z,7.73
2019-01-30T02:50:05.011Z,6.30
2019-01-30T02:55:00.909Z,5.53
2019-01-30T02:59:56.802Z,6.83
2019-01-30T03:04:52.701Z,6.10
2019-01-30T03:09:48.643Z,7.00
2019-01-30T03:14:44.560Z,8.40
2019-01-30T03:19:40.416Z,6.50
2019-01-30T03:24:37.063Z,6.67
2019-01-30T03:29:32.914Z,6.63
2019-01-30T03:34:28.806Z,7.10
2019-01-30T03:39:24.743Z,8.60
2019-01-30T03:44:20.626Z,6.77
2019-01-30T03:49:16.514Z,7.53
2019-01-30T03:54:13.227Z,7.73
2019-01-30T03:59:09.075Z,7.43
2019-01-30T04:04:04.962Z,7.20
2019-01-30T04:09:00.853Z,7.53
2019-01-30T04:13:56.765Z,7.13
2019-01-30T04:18:52.673Z,8.30
2019-01-30T04:23:52.379Z,6.80
2019-01-30T04:28:48.368Z,7.23
2019-01-30T04:33:44.271Z,8.10
2019-01-30T04:38:40.135Z,6.70
2019-01-30T04:43:36.082Z,6.40
2019-01-30T04:48:31.969Z,6.77
2019-01-30T04:53:29.295Z,5.70
2019-01-30T04:58:25.386Z,6.83
2019-01-30T05:03:21.286Z,8.50
2019-01-30T05:08:17.166Z,9.00
2019-01-30T05:13:13.157Z,8.73
2019-01-30T05:18:09.051Z,9.10
2019-01-30T05:23:04.937Z,10.07
2019-01-30T05:28:00.934Z,9.80
2019-01-30T05:32:56.822Z,9.27
2019-01-30T05:37:52.906Z,9.90
2019-01-30T05:42:48.901Z,9.47
2019-01-30T05:47:44.896Z,8.00
2019-01-30T05:52:40.997Z,8.47
2019-01-30T05:57:36.895Z,7.00
2019-01-30T06:02:32.790Z,7.90
2019-01-30T06:07:28.677Z,7.70
2019-01-30T06:12:24.575Z,8.27
2019-01-30T06:17:20.462Z,7.33
2019-01-30T06:22:16.351Z,9.57
2019-01-30T06:27:12.342Z,8.53
2019-01-30T06:32:08.235Z,10.33
2019-01-30T06:37:04.130Z,7.93
2019-01-30T06:42:00.022Z,7.90
2019-01-30T06:46:56.023Z,6.10
2019-01-30T06:51:51.915Z,5.70
2019-01-30T06:56:47.829Z,5.83
2019-01-30T07:01:43.704Z,5.90
2019-01-30T07:06:39.592Z,5.53
2019-01-30T07:11:35.480Z,6.17
2019-01-30T07:16:31.376Z,5.77
2019-01-30T07:21:27.266Z,4.70
2019-01-30T07:26:23.263Z,3.83
2019-01-30T07:31:19.392Z,5.17
2019-01-30T07:36:15.249Z,4.50
2019-01-30T07:41:11.143Z,4.30
2019-01-30T07:46:07.033Z,4.57
2019-01-30T07:51:03.041Z,4.80
2019-01-30T07:55:59.086Z,4.30
2019-01-30T08:00:54.977Z,5.07
2019-01-30T08:05:50.955Z,5.63
2019-01-30T08:10:46.990Z,6.10
2019-01-30T08:15:42.878Z,6.17
2019-01-30T08:20:38.875Z,6.30
2019-01-30T08:25:34.766Z,6.57
2019-01-30T08:30:30.871Z,5.47
2019-01-30T08:35:28.456Z,6.10
2019-01-30T08:40:24.341Z,6.33
2019-01-30T08:45:25.383Z,5.60
2019-01-30T08:50:21.381Z,5.20
2019-01-30T08:55:17.266Z,4.00
2019-01-30T09:05:42.229Z,5.17
2019-01-30T09:10:38.157Z,5.83
2019-01-30T09:15:34.040Z,5.10
2019-01-30T09:20:29.936Z,5.10
2019-01-30T09:25:27.930Z,4.90
2019-01-30T09:30:26.323Z,4.73
2019-01-30T09:35:22.441Z,4.90
2019-01-30T09:40:20.116Z,4.63
2019-01-30T09:45:17.395Z,4.47
2019-01-30T09:50:17.644Z,5.33
2019-01-30T09:55:18.876Z,4.20
2019-01-30T10:00:29.896Z,5.60
2019-01-30T10:05:25.886Z,5.23
2019-01-30T10:10:28.030Z,4.60
2019-01-30T10:15:45.702Z,6.07
2019-01-30T10:20:44.096Z,5.33
2019-01-30T10:25:39.993Z,5.50
2019-01-30T10:30:38.584Z,6.17
2019-01-30T10:35:34.775Z,6.93
2019-01-30T10:40:30.660Z,6.30
2019-01-30T10:45:26.728Z,6.37
2019-01-30T10:50:24.648Z,6.50
2019-01-30T10:55:25.405Z,6.53
2019-01-30T11:00:24.412Z,5.63
2019-01-30T11:05:20.507Z,5.83
2019-01-30T11:10:18.230Z,5.17
2019-01-30T11:15:16.641Z,6.50
2019-01-30T11:20:17.855Z,5.83
2019-01-30T11:25:25.422Z,5.20
2019-01-30T11:30:21.318Z,6.23
2019-01-30T11:35:17.310Z,4.63
2019-01-30T11:40:20.567Z,5.80
2019-01-30T11:45:26.071Z,5.53
2019-01-30T11:50:22.056Z,5.00
2019-01-30T11:55:18.254Z,6.37
2019-01-30T12:00:43.533Z,6.63
2019-01-30T12:05:39.830Z,7.60
2019-01-30T12:10:35.845Z,5.83
2019-01-30T12:15:31.739Z,7.40
2019-01-30T12:20:27.625Z,7.20
2019-01-30T12:25:23.526Z,7.33
2019-01-30T12:30:26.988Z,6.97
2019-01-30T12:35:22.982Z,7.40
2019-01-30T12:40:21.509Z,7.40
2019-01-30T12:45:20.703Z,7.00
2019-01-30T12:50:16.695Z,7.73
2019-01-30T12:55:12.853Z,8.73
2019-01-30T13:00:20.924Z,8.57
2019-01-30T13:05:17.620Z,7.37
2019-01-30T13:10:13.639Z,7.87
2019-01-30T13:15:12.135Z,8.17
2019-01-30T13:20:11.845Z,7.23
2019-01-30T13:25:10.761Z,8.63
2019-01-30T13:30:33.045Z,7.83
2019-01-30T13:35:29.965Z,8.10
2019-01-30T13:40:32.171Z,8.33
2019-01-30T13:45:29.882Z,8.60
2019-01-30T13:50:29.250Z,7.93
2019-01-30T13:55:25.439Z,7.17
2019-01-30T14:00:33.709Z,6.87
2019-01-30T14:05:29.858Z,7.43
2019-01-30T14:10:28.351Z,7.57
2019-01-30T14:15:26.686Z,7.10
2019-01-30T14:20:22.662Z,6.70
2019-01-30T14:25:18.658Z,7.30
2019-01-30T14:30:26.231Z,6.00
2019-01-30T14:35:23.635Z,6.67
2019-01-30T14:40:20.428Z,6.47
2019-01-30T14:45:18.185Z,7.33
2019-01-30T14:50:17.067Z,7.43
2019-01-30T14:55:13.678Z,7.17
2019-01-30T15:00:23.932Z,6.07
2019-01-30T15:05:22.528Z,6.43
2019-01-30T15:10:22.551Z,7.03
2019-01-30T15:15:21.762Z,8.03
2019-01-30T15:20:24.344Z,6.87
2019-01-30T15:25:21.992Z,8.40
2019-01-30T15:30:21.709Z,8.33
2019-01-30T15:35:17.811Z,8.97
2019-01-30T15:40:19.886Z,8.13
2019-01-30T15:45:18.288Z,7.63
2019-01-30T15:50:38.855Z,8.73
2019-01-30T15:55:34.995Z,8.60
2019-01-30T16:00:37.397Z,8.93
2019-01-30T16:05:44.096Z,8.00
2019-01-30T16:10:32.431Z,9.10
2019-01-30T16:15:34.710Z,8.10
2019-01-30T16:20:30.597Z,9.60
2019-01-30T16:25:26.600Z,8.77
2019-01-30T16:30:23.780Z,8.17
2019-01-30T16:35:55.768Z,7.40
2019-01-30T16:40:46.537Z,8.17
2019-01-30T16:45:42.641Z,8.13
2019-01-30T16:50:38.545Z,9.47
2019-01-30T16:55:37.905Z,8.37
2019-01-30T17:00:35.888Z,7.87
2019-01-30T17:05:31.983Z,9.10
2019-01-30T17:10:27.997Z,7.17
2019-01-30T17:15:30.154Z,8.87
2019-01-30T17:20:32.263Z,9.00
2019-01-30T17:25:28.461Z,8.70
2019-01-30T17:30:48.742Z,8.23
2019-01-30T17:35:44.765Z,9.10
2019-01-30T17:40:40.859Z,9.40
2019-01-30T17:45:36.754Z,10.37
2019-01-30T17:50:32.655Z,10.03
2019-01-30T17:55:28.558Z,10.20
2019-01-30T18:00:32.222Z,10.47
2019-01-30T18:05:28.122Z,10.50
2019-01-30T18:10:24.143Z,10.40
2019-01-30T18:15:20.046Z,10.80
2019-01-30T18:20:20.016Z,10.70
2019-01-30T18:25:16.715Z,9.70
2019-01-30T18:30:15.723Z,10.80
2019-01-30T18:35:12.328Z,11.50
2019-01-30T18:40:12.047Z,10.77
2019-01-30T18:45:11.640Z,11.33
2019-01-30T18:50:14.085Z,10.83
2019-01-30T18:55:11.100Z,11.00
2019-01-30T19:00:13.608Z,12.10
2019-01-30T19:05:12.126Z,11.97
2019-01-30T19:10:11.451Z,14.20
2019-01-30T19:15:14.462Z,14.40
2019-01-30T19:20:13.835Z,16.17
2019-01-30T19:25:09.825Z,13.80
2019-01-30T19:30:09.532Z,10.80
2019-01-30T19:35:06.927Z,16.67
2019-01-30T19:40:06.235Z,12.77
2019-01-30T19:45:05.901Z,15.90
2019-01-30T19:50:04.574Z,13.23
2019-01-30T19:55:06.882Z,19.90
2019-01-30T20:00:27.100Z,19.20
2019-01-30T20:05:28.816Z,21.63
2019-01-30T20:10:27.622Z,23.50
2019-01-30T20:15:25.049Z,27.20
2019-01-30T20:20:21.365Z,23.20
2019-01-30T20:25:26.684Z,26.37
2019-01-30T20:36:21.210Z,21.10
2019-01-30T20:41:17.101Z,23.03
2019-01-30T20:46:12.973Z,25.80
2019-01-30T20:51:08.852Z,21.77
2019-01-30T20:56:04.857Z,21.80
2019-01-30T21:01:00.849Z,24.13
2019-01-30T21:05:56.750Z,23.83
2019-01-30T21:10:53.425Z,23.60
2019-01-30T21:15:55.032Z,25.60
2019-01-30T21:20:53.612Z,24.10
2019-01-30T21:25:53.256Z,24.27
2019-01-30T21:30:49.892Z,23.30
2019-01-30T21:35:46.576Z,26.77
2019-01-30T21:40:43.729Z,26.20
2019-01-30T21:45:40.572Z,26.67
2019-01-30T21:50:38.799Z,26.40
2019-01-30T21:55:36.049Z,20.80
2019-01-30T22:00:32.878Z,27.93
2019-01-30T22:05:30.254Z,26.00
2019-01-30T22:10:28.347Z,28.07
2019-01-30T22:15:25.052Z,26.80
2019-01-30T22:20:26.899Z,27.00
2019-01-30T22:25:26.091Z,26.60
2019-01-30T22:30:28.917Z,29.00
2019-01-30T22:35:25.556Z,27.87
2019-01-30T22:40:22.877Z,27.63
2019-01-30T22:45:20.525Z,28.17
2019-01-30T22:50:18.421Z,28.07
2019-01-30T22:55:21.050Z,26.83
2019-01-30T23:00:38.135Z,27.00
2019-01-30T23:05:48.047Z,25.87
2019-01-30T23:10:48.846Z,27.43
2019-01-30T23:16:12.184Z,27.43
2019-01-30T23:21:13.134Z,25.57
2019-01-30T23:26:13.508Z,27.47
2019-01-30T23:31:25.739Z,26.70
2019-01-30T23:37:05.273Z,28.27
2019-01-30T23:42:08.499Z,26.90
2019-01-30T23:47:20.796Z,29.13
2019-01-30T23:52:26.963Z,28.17
2019-01-30T23:57:42.366Z,27.93
